Sheridan, WY (82801)

8:50 AM MST on February 07, 2016 (GMT -0700)
South Sheridan | | Change Station
CLOSE
Current Station
Personal Weather Station
Location: Sheridan, WY
Elevation: 3770 ft
Nearby Weather Stations

Elev 3770 ft 44.79 °N, 106.95 °W | Updated 7 seconds ago

Mostly Cloudy
Mostly Cloudy
33.8 °F
Feels Like 29 °F
N
5.6
Wind Variable Wind from WNW
Gusts 7.4 mph

Today
High -- | Low -- °F
--% Chance of Precip.
Yesterday
High -- | Low -- °F
Precip. -- in
Pressure 30.32 in
Visibility 25.0 miles
Clouds Mostly Cloudy 9000 ft
Windchill 29 °F
Dew Point 15 °F
Humidity 46%
Rainfall 0.00 in
Snow Depth Not available.
7:20 AM 5:24 PM
Waning Crescent, 1% visible
METAR KSHR 071458Z 31018KT 25SM BKN090 00/M10 A3032
Pressure 30.32 in
Visibility 25.0 miles
Clouds Mostly Cloudy 9000 ft
Windchill 29 °F
Dew Point 15 °F
Humidity 46%
Rainfall 0.00 in
Snow Depth Not available.
7:20 AM 5:24 PM
Waning Crescent, 1% visible
METAR KSHR 071458Z 31018KT 25SM BKN090 00/M10 A3032

10-Day Weather Forecast

Almanac

Astronomy

Feb. 07, 2016 Rise Set
Actual Time
Civil Twilight
Nautical Twilight
Astronomical Twilight
Moon
Length of Visible Light
Length of Day
Tomorrow will be .
, % of the Moon is Illuminated

Today's Extremes

State Highs State Lows

Community

WunderPhotos

Upload Photos

1,891,216 photos uploaded!

WunderBlog® & News

Nearby

Air Quality

  Air Quality AQ Index Pollutant
Not available.

Snow Depth

Station Depth Elevation

Earthquake Activity

City Distance Mag. Time & Date
Minimum magnitude displayed is 2.5.

Coastal Water Temperatures

Place Temperature

Stations

Nearby Weather Stations

Station Location Temp. Windchill Dew Point Humidity Wind Precip. Elev Updated Type
                   

Watches & Warnings

There are currently no watches in effect.